sensor_id;sensor_type;location;lat;lon;timestamp;P1;durP1;ratioP1;P2;durP2;ratioP2
44564;SDS011;30275;51.822;-0.326;2023-02-24T00:01:01;16.77;;;7.95;;
44564;SDS011;30275;51.822;-0.326;2023-02-24T00:03:36;15.30;;;8.52;;
44564;SDS011;30275;51.822;-0.326;2023-02-24T00:06:03;16.58;;;6.70;;
44564;SDS011;30275;51.822;-0.326;2023-02-24T00:08:36;14.40;;;6.38;;
44564;SDS011;30275;51.822;-0.326;2023-02-24T00:11:11;16.98;;;7.00;;
44564;SDS011;30275;51.822;-0.326;2023-02-24T00:13:43;13.35;;;6.32;;
44564;SDS011;30275;51.822;-0.326;2023-02-24T00:16:13;14.63;;;6.13;;
44564;SDS011;30275;51.822;-0.326;2023-02-24T00:18:41;16.65;;;5.85;;
44564;SDS011;30275;51.822;-0.326;2023-02-24T00:21:09;22.10;;;7.05;;
44564;SDS011;30275;51.822;-0.326;2023-02-24T00:23:38;16.05;;;7.88;;
44564;SDS011;30275;51.822;-0.326;2023-02-24T00:26:04;10.45;;;6.10;;
44564;SDS011;30275;51.822;-0.326;2023-02-24T00:28:32;17.00;;;6.45;;
44564;SDS011;30275;51.822;-0.326;2023-02-24T00:31:02;15.57;;;6.47;;
44564;SDS011;30275;51.822;-0.326;2023-02-24T00:33:34;13.02;;;5.75;;
44564;SDS011;30275;51.822;-0.326;2023-02-24T00:36:03;14.85;;;6.15;;
44564;SDS011;30275;51.822;-0.326;2023-02-24T00:38:30;16.73;;;7.28;;
44564;SDS011;30275;51.822;-0.326;2023-02-24T00:41:00;14.82;;;6.18;;
44564;SDS011;30275;51.822;-0.326;2023-02-24T00:43:31;14.52;;;5.50;;
44564;SDS011;30275;51.822;-0.326;2023-02-24T00:46:01;12.68;;;6.53;;
44564;SDS011;30275;51.822;-0.326;2023-02-24T00:48:27;15.93;;;6.43;;
44564;SDS011;30275;51.822;-0.326;2023-02-24T00:50:53;11.63;;;5.82;;
44564;SDS011;30275;51.822;-0.326;2023-02-24T00:53:19;13.40;;;6.53;;
44564;SDS011;30275;51.822;-0.326;2023-02-24T00:55:44;13.90;;;5.50;;
44564;SDS011;30275;51.822;-0.326;2023-02-24T00:58:10;12.45;;;5.72;;
44564;SDS011;30275;51.822;-0.326;2023-02-24T01:00:35;13.50;;;5.90;;
44564;SDS011;30275;51.822;-0.326;2023-02-24T01:03:01;18.90;;;5.95;;
44564;SDS011;30275;51.822;-0.326;2023-02-24T01:05:28;16.15;;;6.57;;
44564;SDS011;30275;51.822;-0.326;2023-02-24T01:07:53;13.35;;;5.57;;
44564;SDS011;30275;51.822;-0.326;2023-02-24T01:10:19;13.77;;;6.05;;
44564;SDS011;30275;51.822;-0.326;2023-02-24T01:12:47;13.10;;;6.35;;
44564;SDS011;30275;51.822;-0.326;2023-02-24T01:15:18;15.65;;;5.75;;
44564;SDS011;30275;51.822;-0.326;2023-02-24T01:17:45;12.18;;;5.72;;
44564;SDS011;30275;51.822;-0.326;2023-02-24T01:20:12;12.85;;;5.28;;
44564;SDS011;30275;51.822;-0.326;2023-02-24T01:22:47;13.07;;;4.95;;
44564;SDS011;30275;51.822;-0.326;2023-02-24T01:25:14;14.90;;;5.53;;
44564;SDS011;30275;51.822;-0.326;2023-02-24T01:27:40;19.50;;;7.10;;
44564;SDS011;30275;51.822;-0.326;2023-02-24T01:30:07;11.95;;;4.88;;
44564;SDS011;30275;51.822;-0.326;2023-02-24T01:32:37;9.43;;;4.75;;
44564;SDS011;30275;51.822;-0.326;2023-02-24T01:35:03;12.55;;;5.57;;
44564;SDS011;30275;51.822;-0.326;2023-02-24T01:37:29;14.07;;;5.50;;
44564;SDS011;30275;51.822;-0.326;2023-02-24T01:39:54;17.05;;;5.10;;
44564;SDS011;30275;51.822;-0.326;2023-02-24T01:42:20;11.05;;;4.70;;
44564;SDS011;30275;51.822;-0.326;2023-02-24T01:47:13;13.75;;;5.60;;
44564;SDS011;30275;51.822;-0.326;2023-02-24T01:49:43;14.75;;;6.63;;
44564;SDS011;30275;51.822;-0.326;2023-02-24T01:52:15;9.98;;;4.90;;
44564;SDS011;30275;51.822;-0.326;2023-02-24T01:54:45;13.45;;;5.70;;
44564;SDS011;30275;51.822;-0.326;2023-02-24T01:57:40;15.63;;;5.15;;
44564;SDS011;30275;51.822;-0.326;2023-02-24T02:00:07;13.00;;;5.80;;
44564;SDS011;30275;51.822;-0.326;2023-02-24T02:02:55;14.10;;;6.50;;
44564;SDS011;30275;51.822;-0.326;2023-02-24T02:05:24;20.60;;;6.45;;
44564;SDS011;30275;51.822;-0.326;2023-02-24T02:07:50;9.50;;;4.82;;
44564;SDS011;30275;51.822;-0.326;2023-02-24T02:10:17;18.58;;;5.70;;
44564;SDS011;30275;51.822;-0.326;2023-02-24T02:12:43;12.70;;;5.93;;
44564;SDS011;30275;51.822;-0.326;2023-02-24T02:15:10;12.52;;;6.03;;
44564;SDS011;30275;51.822;-0.326;2023-02-24T02:37:22;16.02;;;6.00;;
44564;SDS011;30275;51.822;-0.326;2023-02-24T02:51:02;15.38;;;6.43;;
44564;SDS011;30275;51.822;-0.326;2023-02-24T02:56:27;13.68;;;5.88;;
44564;SDS011;30275;51.822;-0.326;2023-02-24T02:58:57;14.27;;;5.25;;
44564;SDS011;30275;51.822;-0.326;2023-02-24T03:01:27;10.63;;;5.30;;
44564;SDS011;30275;51.822;-0.326;2023-02-24T03:04:04;13.93;;;6.00;;
44564;SDS011;30275;51.822;-0.326;2023-02-24T03:06:33;13.02;;;6.05;;
44564;SDS011;30275;51.822;-0.326;2023-02-24T03:09:05;18.90;;;6.37;;
44564;SDS011;30275;51.822;-0.326;2023-02-24T03:11:43;11.18;;;5.07;;
44564;SDS011;30275;51.822;-0.326;2023-02-24T03:14:14;12.40;;;5.80;;
44564;SDS011;30275;51.822;-0.326;2023-02-24T03:16:43;11.80;;;5.22;;
44564;SDS011;30275;51.822;-0.326;2023-02-24T03:19:13;11.82;;;5.18;;
44564;SDS011;30275;51.822;-0.326;2023-02-24T03:21:44;10.13;;;5.30;;
44564;SDS011;30275;51.822;-0.326;2023-02-24T03:24:15;9.30;;;4.70;;
44564;SDS011;30275;51.822;-0.326;2023-02-24T03:26:45;9.85;;;4.75;;
44564;SDS011;30275;51.822;-0.326;2023-02-24T03:29:30;12.57;;;5.03;;
44564;SDS011;30275;51.822;-0.326;2023-02-24T03:32:21;14.27;;;5.30;;
44564;SDS011;30275;51.822;-0.326;2023-02-24T03:37:21;11.27;;;4.47;;
44564;SDS011;30275;51.822;-0.326;2023-02-24T03:39:51;10.00;;;5.30;;
44564;SDS011;30275;51.822;-0.326;2023-02-24T03:42:35;9.73;;;4.65;;
44564;SDS011;30275;51.822;-0.326;2023-02-24T03:45:05;10.05;;;4.40;;
44564;SDS011;30275;51.822;-0.326;2023-02-24T03:47:31;9.85;;;4.78;;
44564;SDS011;30275;51.822;-0.326;2023-02-24T03:49:57;11.45;;;4.95;;
44564;SDS011;30275;51.822;-0.326;2023-02-24T04:03:27;8.82;;;3.72;;
44564;SDS011;30275;51.822;-0.326;2023-02-24T04:08:36;8.60;;;4.07;;
44564;SDS011;30275;51.822;-0.326;2023-02-24T04:11:11;8.55;;;4.13;;
44564;SDS011;30275;51.822;-0.326;2023-02-24T04:13:56;11.00;;;4.97;;
44564;SDS011;30275;51.822;-0.326;2023-02-24T04:16:33;9.20;;;4.25;;
44564;SDS011;30275;51.822;-0.326;2023-02-24T04:19:12;13.55;;;4.80;;
44564;SDS011;30275;51.822;-0.326;2023-02-24T04:21:41;6.88;;;3.95;;
44564;SDS011;30275;51.822;-0.326;2023-02-24T04:24:09;6.53;;;3.55;;
44564;SDS011;30275;51.822;-0.326;2023-02-24T04:26:40;7.82;;;4.25;;
44564;SDS011;30275;51.822;-0.326;2023-02-24T04:29:08;8.50;;;4.57;;
44564;SDS011;30275;51.822;-0.326;2023-02-24T04:31:42;10.63;;;4.70;;
44564;SDS011;30275;51.822;-0.326;2023-02-24T04:34:12;11.20;;;4.95;;
44564;SDS011;30275;51.822;-0.326;2023-02-24T04:36:43;11.73;;;4.68;;
44564;SDS011;30275;51.822;-0.326;2023-02-24T04:39:16;12.57;;;4.97;;
44564;SDS011;30275;51.822;-0.326;2023-02-24T04:41:44;12.20;;;4.75;;
44564;SDS011;30275;51.822;-0.326;2023-02-24T04:44:18;11.48;;;4.88;;
44564;SDS011;30275;51.822;-0.326;2023-02-24T04:46:45;8.65;;;3.70;;
44564;SDS011;30275;51.822;-0.326;2023-02-24T04:49:14;8.93;;;4.43;;
44564;SDS011;30275;51.822;-0.326;2023-02-24T04:51:40;12.60;;;4.05;;
44564;SDS011;30275;51.822;-0.326;2023-02-24T04:54:07;9.18;;;4.47;;
44564;SDS011;30275;51.822;-0.326;2023-02-24T04:56:34;8.93;;;3.97;;
44564;SDS011;30275;51.822;-0.326;2023-02-24T04:59:01;7.22;;;3.65;;
44564;SDS011;30275;51.822;-0.326;2023-02-24T05:01:27;11.63;;;5.57;;
44564;SDS011;30275;51.822;-0.326;2023-02-24T05:03:53;11.55;;;3.70;;
44564;SDS011;30275;51.822;-0.326;2023-02-24T05:06:19;8.30;;;4.18;;
44564;SDS011;30275;51.822;-0.326;2023-02-24T05:08:44;8.73;;;4.00;;
44564;SDS011;30275;51.822;-0.326;2023-02-24T05:11:14;13.88;;;3.53;;
44564;SDS011;30275;51.822;-0.326;2023-02-24T05:13:40;7.97;;;3.75;;
44564;SDS011;30275;51.822;-0.326;2023-02-24T05:16:09;7.55;;;3.67;;
44564;SDS011;30275;51.822;-0.326;2023-02-24T05:18:37;9.93;;;4.82;;
44564;SDS011;30275;51.822;-0.326;2023-02-24T05:21:04;11.10;;;3.42;;
44564;SDS011;30275;51.822;-0.326;2023-02-24T05:23:51;8.88;;;3.50;;
44564;SDS011;30275;51.822;-0.326;2023-02-24T05:26:18;9.75;;;3.90;;
44564;SDS011;30275;51.822;-0.326;2023-02-24T05:28:45;8.35;;;3.17;;
44564;SDS011;30275;51.822;-0.326;2023-02-24T05:31:25;9.57;;;2.97;;
44564;SDS011;30275;51.822;-0.326;2023-02-24T05:33:54;6.05;;;3.05;;
44564;SDS011;30275;51.822;-0.326;2023-02-24T05:36:22;9.77;;;3.60;;
44564;SDS011;30275;51.822;-0.326;2023-02-24T05:38:49;10.13;;;3.58;;
44564;SDS011;30275;51.822;-0.326;2023-02-24T05:41:22;6.25;;;3.60;;
44564;SDS011;30275;51.822;-0.326;2023-02-24T05:43:56;8.55;;;3.83;;
44564;SDS011;30275;51.822;-0.326;2023-02-24T05:46:24;5.22;;;3.47;;
44564;SDS011;30275;51.822;-0.326;2023-02-24T05:48:56;8.63;;;3.38;;
44564;SDS011;30275;51.822;-0.326;2023-02-24T05:51:24;9.50;;;4.03;;
44564;SDS011;30275;51.822;-0.326;2023-02-24T05:53:51;10.43;;;3.15;;
44564;SDS011;30275;51.822;-0.326;2023-02-24T05:56:21;10.32;;;4.18;;
44564;SDS011;30275;51.822;-0.326;2023-02-24T05:58:47;9.77;;;3.90;;
44564;SDS011;30275;51.822;-0.326;2023-02-24T06:01:26;7.25;;;3.50;;
44564;SDS011;30275;51.822;-0.326;2023-02-24T06:03:54;12.00;;;3.75;;
44564;SDS011;30275;51.822;-0.326;2023-02-24T06:06:20;8.45;;;3.75;;
44564;SDS011;30275;51.822;-0.326;2023-02-24T06:08:47;9.15;;;3.75;;
44564;SDS011;30275;51.822;-0.326;2023-02-24T06:11:14;10.10;;;4.57;;
44564;SDS011;30275;51.822;-0.326;2023-02-24T06:13:42;7.03;;;3.60;;
44564;SDS011;30275;51.822;-0.326;2023-02-24T06:16:15;6.90;;;3.33;;
44564;SDS011;30275;51.822;-0.326;2023-02-24T06:18:42;11.52;;;4.25;;
44564;SDS011;30275;51.822;-0.326;2023-02-24T06:21:11;10.18;;;3.90;;
44564;SDS011;30275;51.822;-0.326;2023-02-24T06:23:37;7.97;;;3.78;;
44564;SDS011;30275;51.822;-0.326;2023-02-24T06:26:04;7.93;;;3.22;;
44564;SDS011;30275;51.822;-0.326;2023-02-24T06:28:36;7.30;;;3.55;;
44564;SDS011;30275;51.822;-0.326;2023-02-24T06:31:07;9.02;;;3.67;;
44564;SDS011;30275;51.822;-0.326;2023-02-24T06:33:35;13.43;;;3.60;;
44564;SDS011;30275;51.822;-0.326;2023-02-24T06:36:01;11.25;;;3.38;;
44564;SDS011;30275;51.822;-0.326;2023-02-24T06:38:30;11.90;;;4.47;;
44564;SDS011;30275;51.822;-0.326;2023-02-24T06:40:58;5.25;;;3.50;;
44564;SDS011;30275;51.822;-0.326;2023-02-24T06:43:28;9.02;;;3.65;;
44564;SDS011;30275;51.822;-0.326;2023-02-24T06:45:54;8.32;;;3.78;;
44564;SDS011;30275;51.822;-0.326;2023-02-24T06:48:20;7.32;;;3.88;;
44564;SDS011;30275;51.822;-0.326;2023-02-24T06:50:47;9.88;;;3.88;;
44564;SDS011;30275;51.822;-0.326;2023-02-24T06:53:14;9.63;;;3.70;;
44564;SDS011;30275;51.822;-0.326;2023-02-24T06:55:43;11.90;;;4.05;;
44564;SDS011;30275;51.822;-0.326;2023-02-24T06:58:18;8.57;;;4.40;;
44564;SDS011;30275;51.822;-0.326;2023-02-24T07:00:45;4.85;;;3.45;;
44564;SDS011;30275;51.822;-0.326;2023-02-24T07:06:42;10.48;;;4.32;;
44564;SDS011;30275;51.822;-0.326;2023-02-24T07:09:12;6.70;;;3.20;;
44564;SDS011;30275;51.822;-0.326;2023-02-24T07:11:40;9.20;;;3.83;;
44564;SDS011;30275;51.822;-0.326;2023-02-24T07:14:08;8.90;;;5.25;;
44564;SDS011;30275;51.822;-0.326;2023-02-24T07:16:35;12.82;;;3.50;;
44564;SDS011;30275;51.822;-0.326;2023-02-24T07:19:04;12.10;;;4.10;;
44564;SDS011;30275;51.822;-0.326;2023-02-24T07:21:35;14.65;;;4.60;;
44564;SDS011;30275;51.822;-0.326;2023-02-24T07:24:07;11.50;;;4.03;;
44564;SDS011;30275;51.822;-0.326;2023-02-24T07:26:35;11.10;;;4.53;;
44564;SDS011;30275;51.822;-0.326;2023-02-24T07:29:05;13.50;;;4.13;;
44564;SDS011;30275;51.822;-0.326;2023-02-24T07:31:32;9.15;;;4.47;;
44564;SDS011;30275;51.822;-0.326;2023-02-24T07:33:58;19.17;;;4.40;;
44564;SDS011;30275;51.822;-0.326;2023-02-24T07:36:26;14.25;;;4.65;;
44564;SDS011;30275;51.822;-0.326;2023-02-24T07:38:53;13.35;;;4.40;;
44564;SDS011;30275;51.822;-0.326;2023-02-24T07:41:22;9.68;;;4.32;;
44564;SDS011;30275;51.822;-0.326;2023-02-24T07:43:51;13.98;;;4.65;;
44564;SDS011;30275;51.822;-0.326;2023-02-24T07:46:19;9.75;;;4.70;;
44564;SDS011;30275;51.822;-0.326;2023-02-24T07:48:50;12.52;;;4.80;;
44564;SDS011;30275;51.822;-0.326;2023-02-24T07:51:17;9.88;;;4.57;;
44564;SDS011;30275;51.822;-0.326;2023-02-24T07:53:48;12.02;;;5.10;;
44564;SDS011;30275;51.822;-0.326;2023-02-24T07:56:15;10.25;;;5.10;;
44564;SDS011;30275;51.822;-0.326;2023-02-24T07:58:47;11.05;;;4.93;;
44564;SDS011;30275;51.822;-0.326;2023-02-24T08:01:21;11.70;;;5.32;;
44564;SDS011;30275;51.822;-0.326;2023-02-24T08:03:48;9.43;;;4.55;;
44564;SDS011;30275;51.822;-0.326;2023-02-24T08:06:16;10.35;;;4.57;;
44564;SDS011;30275;51.822;-0.326;2023-02-24T08:08:51;13.68;;;4.28;;
44564;SDS011;30275;51.822;-0.326;2023-02-24T08:11:31;8.70;;;4.90;;
44564;SDS011;30275;51.822;-0.326;2023-02-24T08:14:06;8.45;;;4.70;;
44564;SDS011;30275;51.822;-0.326;2023-02-24T08:16:41;8.10;;;4.15;;
44564;SDS011;30275;51.822;-0.326;2023-02-24T08:19:09;11.32;;;4.55;;
44564;SDS011;30275;51.822;-0.326;2023-02-24T08:21:48;11.98;;;4.97;;
44564;SDS011;30275;51.822;-0.326;2023-02-24T08:24:17;10.77;;;4.55;;
44564;SDS011;30275;51.822;-0.326;2023-02-24T08:26:48;9.48;;;4.22;;
44564;SDS011;30275;51.822;-0.326;2023-02-24T08:29:38;9.70;;;4.50;;
44564;SDS011;30275;51.822;-0.326;2023-02-24T08:32:07;14.38;;;5.07;;
44564;SDS011;30275;51.822;-0.326;2023-02-24T08:34:34;8.40;;;4.50;;
44564;SDS011;30275;51.822;-0.326;2023-02-24T08:37:00;7.47;;;3.90;;
44564;SDS011;30275;51.822;-0.326;2023-02-24T08:39:26;13.40;;;5.40;;
44564;SDS011;30275;51.822;-0.326;2023-02-24T08:41:58;11.40;;;5.15;;
44564;SDS011;30275;51.822;-0.326;2023-02-24T08:44:24;6.70;;;4.10;;
44564;SDS011;30275;51.822;-0.326;2023-02-24T08:46:51;8.85;;;4.40;;
44564;SDS011;30275;51.822;-0.326;2023-02-24T08:49:18;10.27;;;4.20;;
44564;SDS011;30275;51.822;-0.326;2023-02-24T08:51:45;8.75;;;4.22;;
44564;SDS011;30275;51.822;-0.326;2023-02-24T08:54:20;11.45;;;4.75;;
44564;SDS011;30275;51.822;-0.326;2023-02-24T08:56:56;11.15;;;4.25;;
44564;SDS011;30275;51.822;-0.326;2023-02-24T08:59:32;10.68;;;3.92;;
44564;SDS011;30275;51.822;-0.326;2023-02-24T09:04:58;9.18;;;4.38;;
44564;SDS011;30275;51.822;-0.326;2023-02-24T09:07:31;12.18;;;4.68;;
44564;SDS011;30275;51.822;-0.326;2023-02-24T09:10:00;7.45;;;3.88;;
44564;SDS011;30275;51.822;-0.326;2023-02-24T09:12:29;10.95;;;4.72;;
44564;SDS011;30275;51.822;-0.326;2023-02-24T09:14:56;9.98;;;4.78;;
44564;SDS011;30275;51.822;-0.326;2023-02-24T09:17:25;9.10;;;4.78;;
44564;SDS011;30275;51.822;-0.326;2023-02-24T09:20:14;11.20;;;4.32;;
44564;SDS011;30275;51.822;-0.326;2023-02-24T09:23:22;10.38;;;4.50;;
44564;SDS011;30275;51.822;-0.326;2023-02-24T09:25:54;9.17;;;4.13;;
44564;SDS011;30275;51.822;-0.326;2023-02-24T09:28:24;7.25;;;3.70;;
44564;SDS011;30275;51.822;-0.326;2023-02-24T09:30:54;10.15;;;4.22;;
44564;SDS011;30275;51.822;-0.326;2023-02-24T09:33:28;10.98;;;4.32;;
44564;SDS011;30275;51.822;-0.326;2023-02-24T09:38:45;8.07;;;3.78;;
44564;SDS011;30275;51.822;-0.326;2023-02-24T09:41:50;5.85;;;3.58;;
44564;SDS011;30275;51.822;-0.326;2023-02-24T09:44:41;9.75;;;4.40;;
44564;SDS011;30275;51.822;-0.326;2023-02-24T09:47:14;11.07;;;5.75;;
44564;SDS011;30275;51.822;-0.326;2023-02-24T09:52:55;6.80;;;4.90;;
44564;SDS011;30275;51.822;-0.326;2023-02-24T09:55:42;8.02;;;4.18;;
44564;SDS011;30275;51.822;-0.326;2023-02-24T10:01:37;8.98;;;4.40;;
44564;SDS011;30275;51.822;-0.326;2023-02-24T10:06:55;7.85;;;4.18;;
44564;SDS011;30275;51.822;-0.326;2023-02-24T10:12:31;10.17;;;4.30;;
44564;SDS011;30275;51.822;-0.326;2023-02-24T10:17:41;8.30;;;4.47;;
44564;SDS011;30275;51.822;-0.326;2023-02-24T10:20:15;6.97;;;4.05;;
44564;SDS011;30275;51.822;-0.326;2023-02-24T10:31:36;9.73;;;5.25;;
44564;SDS011;30275;51.822;-0.326;2023-02-24T10:34:11;11.00;;;5.03;;
44564;SDS011;30275;51.822;-0.326;2023-02-24T10:36:50;10.52;;;4.43;;
44564;SDS011;30275;51.822;-0.326;2023-02-24T10:39:17;10.43;;;5.47;;
44564;SDS011;30275;51.822;-0.326;2023-02-24T10:41:56;10.02;;;4.88;;
44564;SDS011;30275;51.822;-0.326;2023-02-24T10:44:45;10.82;;;5.28;;
44564;SDS011;30275;51.822;-0.326;2023-02-24T10:47:19;8.20;;;4.45;;
44564;SDS011;30275;51.822;-0.326;2023-02-24T10:49:56;10.13;;;4.80;;
44564;SDS011;30275;51.822;-0.326;2023-02-24T10:52:30;13.60;;;5.13;;
44564;SDS011;30275;51.822;-0.326;2023-02-24T10:58:19;12.98;;;5.35;;
44564;SDS011;30275;51.822;-0.326;2023-02-24T11:01:12;10.57;;;5.10;;
44564;SDS011;30275;51.822;-0.326;2023-02-24T11:04:02;12.05;;;5.05;;
44564;SDS011;30275;51.822;-0.326;2023-02-24T11:06:46;9.00;;;4.85;;
44564;SDS011;30275;51.822;-0.326;2023-02-24T11:09:22;12.57;;;5.10;;
44564;SDS011;30275;51.822;-0.326;2023-02-24T11:11:53;10.63;;;5.25;;
44564;SDS011;30275;51.822;-0.326;2023-02-24T11:14:50;9.38;;;4.93;;
44564;SDS011;30275;51.822;-0.326;2023-02-24T11:22:41;10.93;;;5.30;;
44564;SDS011;30275;51.822;-0.326;2023-02-24T11:25:14;9.90;;;5.25;;
44564;SDS011;30275;51.822;-0.326;2023-02-24T11:28:04;9.98;;;5.47;;
44564;SDS011;30275;51.822;-0.326;2023-02-24T11:30:51;11.82;;;6.18;;
44564;SDS011;30275;51.822;-0.326;2023-02-24T11:41:20;9.30;;;5.50;;
44564;SDS011;30275;51.822;-0.326;2023-02-24T11:43:58;10.75;;;5.88;;
44564;SDS011;30275;51.822;-0.326;2023-02-24T11:46:35;9.30;;;5.50;;
44564;SDS011;30275;51.822;-0.326;2023-02-24T11:49:08;8.52;;;5.10;;
44564;SDS011;30275;51.822;-0.326;2023-02-24T11:52:01;9.52;;;5.53;;
44564;SDS011;30275;51.822;-0.326;2023-02-24T11:54:32;9.90;;;5.55;;
44564;SDS011;30275;51.822;-0.326;2023-02-24T11:57:02;8.60;;;5.32;;
44564;SDS011;30275;51.822;-0.326;2023-02-24T11:59:38;11.15;;;5.25;;
44564;SDS011;30275;51.822;-0.326;2023-02-24T12:15:31;7.78;;;3.10;;
44564;SDS011;30275;51.822;-0.326;2023-02-24T12:26:16;9.15;;;3.30;;
44564;SDS011;30275;51.822;-0.326;2023-02-24T12:31:35;8.98;;;3.45;;
44564;SDS011;30275;51.822;-0.326;2023-02-24T12:36:56;6.57;;;2.88;;
44564;SDS011;30275;51.822;-0.326;2023-02-24T12:45:36;10.07;;;4.07;;
44564;SDS011;30275;51.822;-0.326;2023-02-24T12:48:45;9.50;;;4.80;;
44564;SDS011;30275;51.822;-0.326;2023-02-24T12:57:50;11.27;;;4.30;;
44564;SDS011;30275;51.822;-0.326;2023-02-24T13:03:47;8.23;;;4.35;;
44564;SDS011;30275;51.822;-0.326;2023-02-24T13:06:29;10.00;;;4.40;;
44564;SDS011;30275;51.822;-0.326;2023-02-24T13:15:06;5.07;;;3.13;;
44564;SDS011;30275;51.822;-0.326;2023-02-24T13:17:47;9.93;;;3.67;;
44564;SDS011;30275;51.822;-0.326;2023-02-24T13:20:24;12.02;;;3.92;;
44564;SDS011;30275;51.822;-0.326;2023-02-24T13:23:02;9.60;;;3.28;;
44564;SDS011;30275;51.822;-0.326;2023-02-24T13:25:40;8.75;;;3.83;;
44564;SDS011;30275;51.822;-0.326;2023-02-24T13:28:22;8.43;;;3.63;;
44564;SDS011;30275;51.822;-0.326;2023-02-24T13:33:26;8.85;;;2.63;;
44564;SDS011;30275;51.822;-0.326;2023-02-24T13:36:16;8.30;;;2.72;;
44564;SDS011;30275;51.822;-0.326;2023-02-24T13:39:05;6.35;;;3.15;;
44564;SDS011;30275;51.822;-0.326;2023-02-24T13:41:44;9.55;;;3.42;;
44564;SDS011;30275;51.822;-0.326;2023-02-24T13:44:21;6.82;;;2.40;;
44564;SDS011;30275;51.822;-0.326;2023-02-24T13:50:00;6.82;;;2.33;;
44564;SDS011;30275;51.822;-0.326;2023-02-24T14:03:38;8.73;;;2.95;;
44564;SDS011;30275;51.822;-0.326;2023-02-24T14:06:06;7.93;;;2.30;;
44564;SDS011;30275;51.822;-0.326;2023-02-24T14:08:48;6.93;;;2.25;;
44564;SDS011;30275;51.822;-0.326;2023-02-24T14:11:18;8.40;;;2.88;;
44564;SDS011;30275;51.822;-0.326;2023-02-24T14:13:51;12.02;;;3.33;;
44564;SDS011;30275;51.822;-0.326;2023-02-24T14:16:23;10.80;;;4.03;;
44564;SDS011;30275;51.822;-0.326;2023-02-24T14:21:19;8.45;;;3.53;;
44564;SDS011;30275;51.822;-0.326;2023-02-24T14:23:53;7.40;;;3.08;;
44564;SDS011;30275;51.822;-0.326;2023-02-24T14:26:20;9.40;;;2.85;;
44564;SDS011;30275;51.822;-0.326;2023-02-24T14:28:50;8.27;;;3.03;;
44564;SDS011;30275;51.822;-0.326;2023-02-24T14:31:22;7.43;;;2.58;;
44564;SDS011;30275;51.822;-0.326;2023-02-24T14:33:52;9.90;;;3.33;;
44564;SDS011;30275;51.822;-0.326;2023-02-24T14:36:24;9.98;;;3.17;;
44564;SDS011;30275;51.822;-0.326;2023-02-24T14:41:44;11.30;;;3.88;;
44564;SDS011;30275;51.822;-0.326;2023-02-24T14:46:48;9.85;;;3.70;;
44564;SDS011;30275;51.822;-0.326;2023-02-24T14:51:50;9.82;;;3.85;;
44564;SDS011;30275;51.822;-0.326;2023-02-24T14:54:52;9.60;;;3.97;;
44564;SDS011;30275;51.822;-0.326;2023-02-24T14:57:20;8.98;;;3.00;;
44564;SDS011;30275;51.822;-0.326;2023-02-24T15:00:31;9.05;;;3.03;;
44564;SDS011;30275;51.822;-0.326;2023-02-24T15:05:26;8.95;;;3.13;;
44564;SDS011;30275;51.822;-0.326;2023-02-24T15:07:52;7.40;;;2.47;;
44564;SDS011;30275;51.822;-0.326;2023-02-24T15:10:22;7.70;;;2.35;;
44564;SDS011;30275;51.822;-0.326;2023-02-24T15:12:53;6.82;;;2.50;;
44564;SDS011;30275;51.822;-0.326;2023-02-24T15:15:40;10.38;;;2.58;;
44564;SDS011;30275;51.822;-0.326;2023-02-24T15:18:21;9.75;;;2.50;;
44564;SDS011;30275;51.822;-0.326;2023-02-24T15:20:58;7.78;;;3.10;;
44564;SDS011;30275;51.822;-0.326;2023-02-24T15:23:29;6.25;;;2.40;;
44564;SDS011;30275;51.822;-0.326;2023-02-24T15:25:59;9.80;;;3.05;;
44564;SDS011;30275;51.822;-0.326;2023-02-24T15:28:27;12.93;;;3.20;;
44564;SDS011;30275;51.822;-0.326;2023-02-24T15:33:51;8.45;;;3.50;;
44564;SDS011;30275;51.822;-0.326;2023-02-24T15:36:21;6.90;;;2.95;;
44564;SDS011;30275;51.822;-0.326;2023-02-24T15:38:50;5.03;;;2.47;;
44564;SDS011;30275;51.822;-0.326;2023-02-24T15:41:18;10.30;;;3.95;;
44564;SDS011;30275;51.822;-0.326;2023-02-24T15:43:48;11.27;;;4.40;;
44564;SDS011;30275;51.822;-0.326;2023-02-24T15:48:43;8.80;;;2.83;;
44564;SDS011;30275;51.822;-0.326;2023-02-24T15:51:15;9.00;;;2.47;;
44564;SDS011;30275;51.822;-0.326;2023-02-24T15:53:45;11.68;;;3.28;;
44564;SDS011;30275;51.822;-0.326;2023-02-24T15:56:11;9.43;;;3.15;;
44564;SDS011;30275;51.822;-0.326;2023-02-24T15:58:36;6.63;;;2.80;;
44564;SDS011;30275;51.822;-0.326;2023-02-24T16:01:05;10.48;;;2.70;;
44564;SDS011;30275;51.822;-0.326;2023-02-24T16:03:32;7.47;;;3.05;;
44564;SDS011;30275;51.822;-0.326;2023-02-24T16:05:58;7.22;;;2.47;;
44564;SDS011;30275;51.822;-0.326;2023-02-24T16:08:24;8.02;;;3.25;;
44564;SDS011;30275;51.822;-0.326;2023-02-24T16:10:49;6.45;;;2.70;;
44564;SDS011;30275;51.822;-0.326;2023-02-24T16:13:21;8.15;;;2.45;;
44564;SDS011;30275;51.822;-0.326;2023-02-24T16:15:49;7.68;;;3.08;;
44564;SDS011;30275;51.822;-0.326;2023-02-24T16:18:19;6.47;;;2.63;;
44564;SDS011;30275;51.822;-0.326;2023-02-24T16:20:47;6.67;;;3.00;;
44564;SDS011;30275;51.822;-0.326;2023-02-24T16:23:23;6.60;;;2.70;;
44564;SDS011;30275;51.822;-0.326;2023-02-24T16:25:51;9.60;;;2.53;;
44564;SDS011;30275;51.822;-0.326;2023-02-24T16:28:20;7.30;;;2.53;;
44564;SDS011;30275;51.822;-0.326;2023-02-24T16:30:47;7.43;;;2.05;;
44564;SDS011;30275;51.822;-0.326;2023-02-24T16:33:15;6.28;;;2.42;;
44564;SDS011;30275;51.822;-0.326;2023-02-24T16:35:42;7.10;;;1.98;;
44564;SDS011;30275;51.822;-0.326;2023-02-24T16:38:10;6.40;;;1.88;;
44564;SDS011;30275;51.822;-0.326;2023-02-24T16:40:42;6.30;;;2.55;;
44564;SDS011;30275;51.822;-0.326;2023-02-24T16:43:09;7.30;;;2.55;;
44564;SDS011;30275;51.822;-0.326;2023-02-24T16:45:35;5.88;;;1.92;;
44564;SDS011;30275;51.822;-0.326;2023-02-24T16:48:03;9.38;;;2.83;;
44564;SDS011;30275;51.822;-0.326;2023-02-24T16:50:33;11.13;;;3.95;;
44564;SDS011;30275;51.822;-0.326;2023-02-24T16:53:03;15.18;;;4.10;;
44564;SDS011;30275;51.822;-0.326;2023-02-24T16:55:29;13.52;;;3.28;;
44564;SDS011;30275;51.822;-0.326;2023-02-24T16:57:54;14.57;;;3.83;;
44564;SDS011;30275;51.822;-0.326;2023-02-24T17:00:20;8.98;;;3.38;;
44564;SDS011;30275;51.822;-0.326;2023-02-24T17:02:47;10.65;;;3.80;;
44564;SDS011;30275;51.822;-0.326;2023-02-24T17:05:17;14.45;;;3.55;;
44564;SDS011;30275;51.822;-0.326;2023-02-24T17:07:53;11.52;;;2.80;;
44564;SDS011;30275;51.822;-0.326;2023-02-24T17:10:20;13.50;;;3.30;;
44564;SDS011;30275;51.822;-0.326;2023-02-24T17:12:47;14.85;;;4.18;;
44564;SDS011;30275;51.822;-0.326;2023-02-24T17:15:20;10.30;;;2.58;;
44564;SDS011;30275;51.822;-0.326;2023-02-24T17:17:47;11.55;;;2.80;;
44564;SDS011;30275;51.822;-0.326;2023-02-24T17:20:14;10.93;;;3.92;;
44564;SDS011;30275;51.822;-0.326;2023-02-24T17:22:42;9.82;;;2.70;;
44564;SDS011;30275;51.822;-0.326;2023-02-24T17:25:19;9.07;;;3.53;;
44564;SDS011;30275;51.822;-0.326;2023-02-24T17:27:48;12.60;;;3.13;;
44564;SDS011;30275;51.822;-0.326;2023-02-24T17:30:15;9.05;;;2.85;;
44564;SDS011;30275;51.822;-0.326;2023-02-24T17:32:43;10.18;;;3.55;;
44564;SDS011;30275;51.822;-0.326;2023-02-24T17:35:09;10.32;;;2.72;;
44564;SDS011;30275;51.822;-0.326;2023-02-24T17:37:35;9.07;;;2.35;;
44564;SDS011;30275;51.822;-0.326;2023-02-24T17:40:00;8.02;;;2.70;;
44564;SDS011;30275;51.822;-0.326;2023-02-24T17:42:27;11.20;;;2.72;;
44564;SDS011;30275;51.822;-0.326;2023-02-24T17:44:52;9.73;;;3.00;;
44564;SDS011;30275;51.822;-0.326;2023-02-24T17:47:18;12.27;;;2.47;;
44564;SDS011;30275;51.822;-0.326;2023-02-24T17:49:43;7.57;;;2.70;;
44564;SDS011;30275;51.822;-0.326;2023-02-24T17:52:09;15.95;;;3.00;;
44564;SDS011;30275;51.822;-0.326;2023-02-24T17:54:35;7.13;;;2.42;;
44564;SDS011;30275;51.822;-0.326;2023-02-24T17:57:00;5.70;;;2.50;;
44564;SDS011;30275;51.822;-0.326;2023-02-24T17:59:26;6.90;;;2.30;;